Time;durP1;ratioP1;P1;durP2;ratioP2;P2;SDS_P1;SDS_P2;PMS_P1;PMS_P2;Temp;Humidity;BMP_temperature;BMP_pressure;BME280_temperature;BME280_humidity;BME280_pressure;Samples;Min_cycle;Max_cycle;Signal;HPM_P1;HPM_P2
2022/12/17 13:08:07;;;;;;;;;;;18.00;56.80;;;;;;5062455;28;1983;-69
2022/12/17 13:10:34;;;;;;;;;;;18.00;56.70;;;;;;5059028;28;2001;-69
2022/12/17 13:13:09;;;;;;;;;;;18.00;56.80;;;;;;5058242;28;1775;-69
2022/12/17 13:15:35;;;;;;;;;;;18.00;56.70;;;;;;5064504;28;1386;-69
2022/12/17 13:18:00;;;;;;;;;;;18.00;56.70;;;;;;5059901;28;1275;-69
2022/12/17 13:20:29;;;;;;;;;;;18.00;56.70;;;;;;5058304;28;1391;-69
2022/12/17 13:23:10;;;;;;;;;;;18.10;56.80;;;;;;5060362;28;1888;-70
2022/12/17 13:25:36;;;;;;;;;;;18.00;56.70;;;;;;5062419;28;1126;-69
2022/12/17 13:28:01;;;;;;;;;;;18.00;56.70;;;;;;5059723;28;1975;-69
2022/12/17 13:30:33;;;;;;;;;;;18.10;56.80;;;;;;5053986;28;1756;-70
2022/12/17 13:33:18;;;;;;;;;;;18.00;56.70;;;;;;5066098;28;1786;-69
2022/12/17 13:35:43;;;;;;;;;;;18.10;56.80;;;;;;5058298;28;1268;-69
2022/12/17 13:38:28;;;;;;;;;;;18.00;56.70;;;;;;5058682;28;1357;-70
2022/12/17 13:41:09;;;;;;;;;;;18.10;56.80;;;;;;5059359;28;1518;-69
2022/12/17 13:43:39;;;;;;;;;;;18.10;56.80;;;;;;5060813;28;1429;-69
2022/12/17 13:46:04;;;;;;;;;;;18.00;56.80;;;;;;5061804;28;1460;-68
2022/12/17 13:48:29;;;;;;;;;;;18.00;56.70;;;;;;5061400;28;1910;-68
2022/12/17 13:50:56;;;;;;;;;;;18.00;56.70;;;;;;5058193;28;1452;-68
2022/12/17 13:53:22;;;;;;;;;;;18.00;56.70;;;;;;5059592;28;1330;-69
2022/12/17 13:55:51;;;;;;;;;;;18.00;56.80;;;;;;5067868;28;1481;-68
2022/12/17 13:58:20;;;;;;;;;;;18.00;56.80;;;;;;5059582;28;1354;-69
2022/12/17 14:00:46;;;;;;;;;;;18.00;56.80;;;;;;5059785;28;1522;-69
2022/12/17 14:03:12;;;;;;;;;;;18.00;56.80;;;;;;5059904;28;1647;-70
2022/12/17 14:05:41;;;;;;;;;;;18.00;56.80;;;;;;5061247;28;1293;-70
2022/12/17 14:08:06;;;;;;;;;;;18.00;56.80;;;;;;5057565;28;2053;-71
2022/12/17 14:10:32;;;;;;;;;;;18.00;56.80;;;;;;5061348;28;1454;-69
2022/12/17 14:13:04;;;;;;;;;;;18.00;56.80;;;;;;5044644;28;1635;-70
2022/12/17 14:15:30;;;;;;;;;;;18.00;56.80;;;;;;5059696;28;844;-70
2022/12/17 14:17:57;;;;;;;;;;;18.00;57.40;;;;;;5062768;28;867;-70
2022/12/17 14:20:24;;;;;;;;;;;18.00;56.80;;;;;;5058471;28;1230;-69
2022/12/17 14:22:50;;;;;;;;;;;18.00;56.90;;;;;;5057973;28;835;-69
2022/12/17 14:25:20;;;;;;;;;;;18.00;56.90;;;;;;5061486;28;923;-69
2022/12/17 14:27:53;;;;;;;;;;;18.00;56.90;;;;;;5058798;28;1902;-70
2022/12/17 14:30:22;;;;;;;;;;;18.00;56.90;;;;;;5058022;28;1385;-69
2022/12/17 14:32:49;;;;;;;;;;;18.00;56.90;;;;;;5058650;28;903;-68
2022/12/17 14:35:34;;;;;;;;;;;18.00;57.00;;;;;;5061489;28;942;-68
2022/12/17 14:38:00;;;;;;;;;;;18.00;57.00;;;;;;5060233;28;983;-69
2022/12/17 14:40:26;;;;;;;;;;;18.00;57.00;;;;;;5059457;28;1949;-68
2022/12/17 14:42:52;;;;;;;;;;;17.90;57.00;;;;;;5060336;28;1374;-68
2022/12/17 14:45:24;;;;;;;;;;;17.90;57.00;;;;;;5064332;28;1006;-67
2022/12/17 14:47:59;;;;;;;;;;;18.00;57.00;;;;;;5060330;28;1964;-67
2022/12/17 14:50:26;;;;;;;;;;;18.00;57.00;;;;;;5063985;28;1364;-67
2022/12/17 14:52:52;;;;;;;;;;;18.00;57.60;;;;;;5059996;28;1768;-68
2022/12/17 14:55:37;;;;;;;;;;;18.00;57.00;;;;;;5060179;28;1228;-68
2022/12/17 14:58:12;;;;;;;;;;;18.00;57.00;;;;;;5069371;28;1142;-68
2022/12/17 15:00:41;;;;;;;;;;;18.00;57.00;;;;;;5074266;28;1354;-68
2022/12/17 15:03:15;;;;;;;;;;;18.00;57.00;;;;;;5065303;28;839;-67
2022/12/17 15:05:41;;;;;;;;;;;18.00;57.00;;;;;;5054188;28;1539;-67
2022/12/17 15:08:06;;;;;;;;;;;18.00;56.90;;;;;;5069342;28;1955;-67
2022/12/17 15:10:32;;;;;;;;;;;18.00;57.00;;;;;;5068090;28;1475;-68
2022/12/17 15:12:57;;;;;;;;;;;18.00;57.00;;;;;;5063493;28;998;-67
2022/12/17 15:15:23;;;;;;;;;;;18.00;56.90;;;;;;5064573;28;931;-67
2022/12/17 15:17:48;;;;;;;;;;;18.00;56.90;;;;;;5067222;28;816;-67
2022/12/17 15:20:15;;;;;;;;;;;18.00;56.90;;;;;;5062218;28;1326;-67
2022/12/17 15:22:41;;;;;;;;;;;18.00;56.90;;;;;;5067372;28;796;-67
2022/12/17 15:25:08;;;;;;;;;;;18.00;56.90;;;;;;5059879;28;931;-67
2022/12/17 15:27:34;;;;;;;;;;;18.00;56.90;;;;;;5064300;28;1898;-67
2022/12/17 15:29:59;;;;;;;;;;;18.00;56.90;;;;;;5070727;28;887;-68
2022/12/17 15:32:25;;;;;;;;;;;18.00;56.90;;;;;;5066754;28;1235;-67
2022/12/17 15:34:50;;;;;;;;;;;18.00;56.90;;;;;;5062071;28;1359;-67
2022/12/17 15:37:16;;;;;;;;;;;18.00;56.90;;;;;;5063257;28;828;-67
2022/12/17 15:39:41;;;;;;;;;;;18.00;56.90;;;;;;5056574;28;848;-67
2022/12/17 15:44:51;;;;;;;;;;;17.90;56.90;;;;;;5065621;28;791;-68
2022/12/17 15:47:17;;;;;;;;;;;18.00;56.90;;;;;;5063371;28;2167;-66
2022/12/17 15:49:43;;;;;;;;;;;18.00;56.90;;;;;;5066646;28;1965;-66
2022/12/17 15:52:09;;;;;;;;;;;18.00;56.90;;;;;;5059722;28;1169;-67
2022/12/17 15:54:34;;;;;;;;;;;18.00;56.90;;;;;;5066876;28;907;-67
2022/12/17 15:57:00;;;;;;;;;;;18.00;56.90;;;;;;5067595;28;1850;-68
2022/12/17 15:59:25;;;;;;;;;;;18.00;56.90;;;;;;5060597;28;1362;-67
2022/12/17 16:01:51;;;;;;;;;;;18.00;56.80;;;;;;5067007;28;1351;-67
2022/12/17 16:04:16;;;;;;;;;;;18.00;56.90;;;;;;5066906;28;1445;-67
2022/12/17 16:06:42;;;;;;;;;;;18.00;56.90;;;;;;5064112;28;1998;-67
2022/12/17 16:09:07;;;;;;;;;;;18.00;56.80;;;;;;5066483;28;1910;-67
2022/12/17 16:11:33;;;;;;;;;;;18.00;56.80;;;;;;5064004;28;1369;-69
2022/12/17 16:13:58;;;;;;;;;;;18.00;56.80;;;;;;5062459;28;2170;-68
2022/12/17 16:16:23;;;;;;;;;;;18.00;56.80;;;;;;5062746;28;1433;-68
2022/12/17 16:18:49;;;;;;;;;;;18.00;56.80;;;;;;5060680;28;1476;-68
2022/12/17 16:21:14;;;;;;;;;;;18.00;56.80;;;;;;5064056;28;1373;-68
2022/12/17 16:23:40;;;;;;;;;;;18.00;56.80;;;;;;5058145;28;863;-68
2022/12/17 16:26:06;;;;;;;;;;;18.00;56.80;;;;;;5061960;28;879;-68
2022/12/17 16:28:32;;;;;;;;;;;18.00;56.80;;;;;;5060121;28;1965;-68
2022/12/17 16:30:57;;;;;;;;;;;18.00;56.80;;;;;;5061934;28;1324;-68
2022/12/17 16:33:22;;;;;;;;;;;18.00;56.70;;;;;;5063062;28;916;-68
2022/12/17 16:35:51;;;;;;;;;;;18.00;56.80;;;;;;5059231;28;1015;-68
2022/12/17 16:38:17;;;;;;;;;;;18.00;56.70;;;;;;5057984;28;849;-68
2022/12/17 16:40:42;;;;;;;;;;;18.00;56.70;;;;;;5062739;28;1220;-68
2022/12/17 16:43:09;;;;;;;;;;;18.10;56.80;;;;;;5063099;28;910;-70
2022/12/17 16:45:34;;;;;;;;;;;18.00;56.70;;;;;;5063821;28;830;-70
2022/12/17 16:48:00;;;;;;;;;;;18.00;56.70;;;;;;5060575;28;1902;-68
2022/12/17 16:50:26;;;;;;;;;;;18.00;56.80;;;;;;5062324;28;1306;-69
2022/12/17 16:52:51;;;;;;;;;;;18.00;56.70;;;;;;5062513;28;867;-69
2022/12/17 16:55:17;;;;;;;;;;;18.00;56.80;;;;;;5065279;28;858;-68
2022/12/17 16:57:42;;;;;;;;;;;18.00;56.80;;;;;;5064687;28;874;-69
2022/12/17 17:00:08;;;;;;;;;;;18.00;56.80;;;;;;5061361;28;1294;-69
2022/12/17 17:02:34;;;;;;;;;;;18.00;56.80;;;;;;5058822;28;1010;-68
2022/12/17 17:04:59;;;;;;;;;;;18.00;56.80;;;;;;5060213;28;1334;-68
2022/12/17 17:07:25;;;;;;;;;;;18.00;56.80;;;;;;5055813;28;1636;-70
2022/12/17 17:09:50;;;;;;;;;;;18.00;56.80;;;;;;5057313;28;1961;-67
2022/12/17 17:12:16;;;;;;;;;;;18.00;56.90;;;;;;5060699;28;1287;-67
2022/12/17 17:14:43;;;;;;;;;;;18.00;56.80;;;;;;5060993;28;852;-67
2022/12/17 17:17:09;;;;;;;;;;;18.00;56.90;;;;;;5063545;28;851;-67
2022/12/17 17:19:35;;;;;;;;;;;18.00;56.90;;;;;;5061569;28;878;-67
2022/12/17 17:22:00;;;;;;;;;;;18.00;56.90;;;;;;5062822;28;1377;-68
2022/12/17 17:24:26;;;;;;;;;;;18.00;56.90;;;;;;5061926;28;1077;-67
2022/12/17 17:26:51;;;;;;;;;;;17.90;56.90;;;;;;5061516;28;846;-67
2022/12/17 17:29:17;;;;;;;;;;;17.90;57.00;;;;;;5060133;28;1899;-67
2022/12/17 17:31:42;;;;;;;;;;;18.00;57.00;;;;;;5044518;28;1388;-68
2022/12/17 17:34:09;;;;;;;;;;;17.90;57.00;;;;;;5056940;28;1022;-68
2022/12/17 17:36:34;;;;;;;;;;;17.90;57.00;;;;;;5059434;28;836;-68
2022/12/17 17:39:01;;;;;;;;;;;17.90;57.00;;;;;;5062942;28;796;-67
2022/12/17 17:41:27;;;;;;;;;;;17.90;57.00;;;;;;5059337;28;1303;-67
2022/12/17 17:43:53;;;;;;;;;;;17.90;57.00;;;;;;5062607;28;942;-66
2022/12/17 17:46:19;;;;;;;;;;;17.90;57.10;;;;;;5062754;28;783;-66
2022/12/17 17:48:45;;;;;;;;;;;17.90;57.10;;;;;;5060510;28;1894;-66
2022/12/17 17:51:11;;;;;;;;;;;17.90;57.10;;;;;;5062016;28;1284;-66
2022/12/17 17:53:37;;;;;;;;;;;17.90;57.10;;;;;;5061157;28;879;-68
2022/12/17 17:56:25;;;;;;;;;;;17.90;57.10;;;;;;5058322;28;1062;-67
2022/12/17 17:59:01;;;;;;;;;;;17.90;57.20;;;;;;5053194;28;1271;-67
2022/12/17 18:01:27;;;;;;;;;;;17.80;57.10;;;;;;5062465;28;1259;-67
2022/12/17 18:03:56;;;;;;;;;;;17.80;57.20;;;;;;5060692;28;1356;-67
2022/12/17 18:06:22;;;;;;;;;;;17.80;57.20;;;;;;5060951;28;1310;-68
2022/12/17 18:08:47;;;;;;;;;;;17.80;57.20;;;;;;5055451;28;1969;-68
2022/12/17 18:11:14;;;;;;;;;;;17.80;57.20;;;;;;5059921;28;2170;-68
2022/12/17 18:13:54;;;;;;;;;;;17.80;57.20;;;;;;5058898;28;1033;-68
2022/12/17 18:16:21;;;;;;;;;;;17.80;57.80;;;;;;5056275;28;918;-68
2022/12/17 18:18:46;;;;;;;;;;;17.80;57.30;;;;;;5055417;28;1936;-66
2022/12/17 18:21:13;;;;;;;;;;;17.80;57.30;;;;;;5060270;28;1402;-66
2022/12/17 18:23:38;;;;;;;;;;;17.80;57.30;;;;;;5057976;28;1463;-66
2022/12/17 18:26:05;;;;;;;;;;;17.80;57.30;;;;;;5060880;28;1440;-68
2022/12/17 18:28:30;;;;;;;;;;;17.80;57.30;;;;;;5059263;28;1961;-67
2022/12/17 18:30:56;;;;;;;;;;;17.80;57.30;;;;;;5065281;28;1514;-69
2022/12/17 18:33:21;;;;;;;;;;;17.80;57.90;;;;;;5065391;28;1451;-69
2022/12/17 18:35:47;;;;;;;;;;;17.80;57.30;;;;;;5060364;28;1460;-69
2022/12/17 18:38:13;;;;;;;;;;;17.80;57.30;;;;;;5066082;28;1451;-68
2022/12/17 18:40:38;;;;;;;;;;;17.80;57.40;;;;;;5067394;28;1738;-68
2022/12/17 18:43:22;;;;;;;;;;;17.80;57.30;;;;;;5064195;28;1190;-69
2022/12/17 18:45:48;;;;;;;;;;;17.80;57.30;;;;;;5063161;28;1044;-67
2022/12/17 18:48:13;;;;;;;;;;;17.80;57.30;;;;;;5065785;28;1902;-68
2022/12/17 18:50:39;;;;;;;;;;;17.80;57.20;;;;;;5066853;28;1346;-67
2022/12/17 18:53:04;;;;;;;;;;;17.80;57.20;;;;;;5064789;28;1363;-67
2022/12/17 18:55:29;;;;;;;;;;;17.80;57.20;;;;;;5063732;28;1071;-68
2022/12/17 18:57:55;;;;;;;;;;;17.80;57.20;;;;;;5063945;28;1203;-67
2022/12/17 19:00:20;;;;;;;;;;;17.80;57.20;;;;;;5061945;28;1274;-67
2022/12/17 19:02:46;;;;;;;;;;;17.90;57.80;;;;;;5062094;28;1378;-67
2022/12/17 19:05:11;;;;;;;;;;;17.90;57.20;;;;;;5068191;28;1112;-67
2022/12/17 19:07:37;;;;;;;;;;;17.90;57.20;;;;;;5062088;28;1960;-68
2022/12/17 19:10:02;;;;;;;;;;;17.90;57.10;;;;;;5061663;28;1495;-67
2022/12/17 19:12:28;;;;;;;;;;;17.90;57.10;;;;;;5062189;28;1755;-67
2022/12/17 19:14:53;;;;;;;;;;;17.90;57.10;;;;;;5063164;28;1429;-68
2022/12/17 19:17:19;;;;;;;;;;;17.90;57.10;;;;;;5062485;28;1531;-67
2022/12/17 19:19:45;;;;;;;;;;;17.90;57.10;;;;;;5065773;28;858;-67
2022/12/17 19:22:11;;;;;;;;;;;17.90;57.10;;;;;;5061424;28;1474;-68
2022/12/17 19:24:36;;;;;;;;;;;17.90;57.10;;;;;;5062561;28;1452;-67
2022/12/17 19:27:02;;;;;;;;;;;17.90;57.10;;;;;;5061967;28;1531;-67
2022/12/17 19:29:27;;;;;;;;;;;17.90;57.00;;;;;;5063077;28;2003;-67
2022/12/17 19:31:53;;;;;;;;;;;17.90;57.00;;;;;;5063366;28;1275;-67
2022/12/17 19:34:18;;;;;;;;;;;17.90;57.00;;;;;;5063964;28;1064;-67
2022/12/17 19:36:44;;;;;;;;;;;17.90;57.00;;;;;;5063265;28;1097;-67
2022/12/17 19:39:10;;;;;;;;;;;17.90;57.00;;;;;;5061076;28;1229;-67
2022/12/17 19:41:36;;;;;;;;;;;17.90;57.00;;;;;;5061331;28;1706;-67
2022/12/17 19:44:05;;;;;;;;;;;17.90;57.00;;;;;;5060164;28;1425;-67
2022/12/17 19:46:30;;;;;;;;;;;18.00;57.00;;;;;;5061195;28;1551;-67
2022/12/17 19:48:56;;;;;;;;;;;18.00;57.00;;;;;;5060107;28;1983;-67
2022/12/17 19:51:22;;;;;;;;;;;17.90;57.00;;;;;;5058350;28;1380;-67
2022/12/17 19:53:48;;;;;;;;;;;18.00;57.00;;;;;;5057505;28;1097;-67
2022/12/17 19:56:29;;;;;;;;;;;18.00;56.90;;;;;;5060606;28;1030;-67
2022/12/17 19:59:00;;;;;;;;;;;18.00;57.00;;;;;;5058380;28;1433;-68
2022/12/17 20:01:27;;;;;;;;;;;18.00;56.90;;;;;;5061064;28;1383;-68
2022/12/17 20:03:52;;;;;;;;;;;18.00;57.00;;;;;;5061793;28;1500;-67
2022/12/17 20:06:18;;;;;;;;;;;17.90;56.90;;;;;;5077348;28;1479;-67
2022/12/17 20:08:44;;;;;;;;;;;18.00;56.90;;;;;;5063346;28;1918;-68
2022/12/17 20:13:54;;;;;;;;;;;18.00;56.90;;;;;;5059583;28;1497;-67
2022/12/17 20:16:20;;;;;;;;;;;17.90;56.90;;;;;;5062689;28;1226;-67
2022/12/17 20:18:45;;;;;;;;;;;18.00;56.90;;;;;;5062355;28;879;-68
2022/12/17 20:21:11;;;;;;;;;;;18.00;56.90;;;;;;5061508;28;1359;-67
2022/12/17 20:23:36;;;;;;;;;;;18.00;56.90;;;;;;5064808;28;1091;-67
2022/12/17 20:26:06;;;;;;;;;;;18.00;56.90;;;;;;5060848;28;1424;-67
2022/12/17 20:28:32;;;;;;;;;;;18.00;56.90;;;;;;5045283;28;1906;-67
2022/12/17 20:30:58;;;;;;;;;;;18.00;56.90;;;;;;5062317;28;1367;-67
2022/12/17 20:33:23;;;;;;;;;;;18.00;56.90;;;;;;5059944;28;1289;-69
2022/12/17 20:35:49;;;;;;;;;;;18.00;56.90;;;;;;5062290;28;1080;-67
2022/12/17 20:38:14;;;;;;;;;;;17.90;56.80;;;;;;5062477;28;1531;-68
2022/12/17 20:40:40;;;;;;;;;;;18.00;56.90;;;;;;5058585;28;1408;-68
2022/12/17 20:43:06;;;;;;;;;;;18.00;56.90;;;;;;5060234;28;1186;-67
2022/12/17 20:45:31;;;;;;;;;;;17.90;56.90;;;;;;5058391;28;1133;-67
2022/12/17 20:47:57;;;;;;;;;;;18.00;56.90;;;;;;5060819;28;1914;-67
2022/12/17 20:50:22;;;;;;;;;;;17.90;56.90;;;;;;5063312;28;1321;-67
2022/12/17 20:52:48;;;;;;;;;;;17.90;56.90;;;;;;5060123;28;1331;-68
2022/12/17 20:55:19;;;;;;;;;;;17.90;57.00;;;;;;5055840;28;1360;-68
2022/12/17 20:57:45;;;;;;;;;;;17.90;57.00;;;;;;5061945;28;1384;-69
2022/12/17 21:00:11;;;;;;;;;;;17.90;57.00;;;;;;5057930;28;1382;-69
2022/12/17 21:02:36;;;;;;;;;;;17.90;57.10;;;;;;5058905;28;1356;-68
2022/12/17 21:05:03;;;;;;;;;;;17.90;57.10;;;;;;5058648;28;1694;-70
2022/12/17 21:07:28;;;;;;;;;;;17.90;57.10;;;;;;5061748;28;1356;-68
2022/12/17 21:09:54;;;;;;;;;;;17.90;57.70;;;;;;5057942;28;1963;-68
2022/12/17 21:12:19;;;;;;;;;;;17.90;57.10;;;;;;5061051;28;1340;-70
2022/12/17 21:14:44;;;;;;;;;;;17.90;57.10;;;;;;5059417;28;1330;-71
2022/12/17 21:17:10;;;;;;;;;;;17.80;57.10;;;;;;5059226;28;1437;-68
2022/12/17 21:19:36;;;;;;;;;;;17.80;57.10;;;;;;5058674;28;1252;-68
2022/12/17 21:22:01;;;;;;;;;;;17.80;57.10;;;;;;5059931;28;1417;-68
2022/12/17 21:24:27;;;;;;;;;;;17.80;57.20;;;;;;5056784;28;1381;-68
2022/12/17 21:26:52;;;;;;;;;;;17.80;57.20;;;;;;5059893;28;1389;-70
2022/12/17 21:29:18;;;;;;;;;;;17.80;57.20;;;;;;5060171;28;1965;-70
2022/12/17 21:31:47;;;;;;;;;;;17.80;57.20;;;;;;5057551;28;1477;-68
2022/12/17 21:34:13;;;;;;;;;;;17.80;57.30;;;;;;5059214;28;1405;-69
2022/12/17 21:36:39;;;;;;;;;;;17.80;57.30;;;;;;5059484;28;1637;-68
2022/12/17 21:39:06;;;;;;;;;;;17.80;57.30;;;;;;5059442;28;1468;-69
2022/12/17 21:41:32;;;;;;;;;;;17.80;57.30;;;;;;5058082;28;1280;-68
2022/12/17 21:43:58;;;;;;;;;;;17.80;57.40;;;;;;5062579;28;1369;-69
2022/12/17 21:46:25;;;;;;;;;;;17.80;57.30;;;;;;5060541;28;1444;-68
2022/12/17 21:48:52;;;;;;;;;;;17.80;57.30;;;;;;5061795;28;1902;-68
2022/12/17 21:51:18;;;;;;;;;;;17.80;57.30;;;;;;5059688;28;1280;-68
2022/12/17 21:53:43;;;;;;;;;;;17.70;57.30;;;;;;5061696;28;1338;-68
2022/12/17 21:56:12;;;;;;;;;;;17.70;57.30;;;;;;5063323;28;1195;-68
2022/12/17 21:58:38;;;;;;;;;;;17.70;57.40;;;;;;5059789;28;1407;-68
2022/12/17 22:01:07;;;;;;;;;;;17.70;57.40;;;;;;5059488;28;1346;-68
2022/12/17 22:03:33;;;;;;;;;;;17.70;57.40;;;;;;5061628;28;1459;-68
2022/12/17 22:06:03;;;;;;;;;;;17.70;57.40;;;;;;5065759;28;1263;-68
2022/12/17 22:08:29;;;;;;;;;;;17.70;57.40;;;;;;5065690;28;1977;-68
2022/12/17 22:10:54;;;;;;;;;;;17.70;57.40;;;;;;5061682;28;1261;-67
2022/12/17 22:16:04;;;;;;;;;;;17.70;57.50;;;;;;5065366;28;1414;-69
2022/12/17 22:18:30;;;;;;;;;;;17.70;57.50;;;;;;5063571;28;979;-70
2022/12/17 22:20:56;;;;;;;;;;;17.70;57.50;;;;;;5064468;28;1604;-70
2022/12/17 22:23:22;;;;;;;;;;;17.70;57.50;;;;;;5063720;28;1453;-69
2022/12/17 22:25:47;;;;;;;;;;;17.70;57.60;;;;;;5066765;28;1391;-70
2022/12/17 22:28:13;;;;;;;;;;;17.70;57.60;;;;;;5067891;28;1902;-71
2022/12/17 22:33:22;;;;;;;;;;;17.60;57.50;;;;;;5064423;28;1382;-69
2022/12/17 22:35:49;;;;;;;;;;;17.60;57.60;;;;;;5064272;28;1051;-73
2022/12/17 22:38:14;;;;;;;;;;;17.60;57.60;;;;;;5064364;28;1552;-73
2022/12/17 22:40:40;;;;;;;;;;;17.70;57.70;;;;;;5063381;28;1516;-72
2022/12/17 22:45:50;;;;;;;;;;;17.60;57.60;;;;;;5066248;28;1357;-71
2022/12/17 22:48:15;;;;;;;;;;;17.60;57.70;;;;;;5065102;28;1953;-72
2022/12/17 22:50:41;;;;;;;;;;;17.60;57.70;;;;;;5064980;28;1506;-71
2022/12/17 22:53:06;;;;;;;;;;;17.60;57.70;;;;;;5062734;28;2105;-68
2022/12/17 22:55:32;;;;;;;;;;;17.60;57.60;;;;;;5060418;28;778;-68
2022/12/17 22:57:57;;;;;;;;;;;17.60;57.70;;;;;;5065538;28;805;-68
2022/12/17 23:00:24;;;;;;;;;;;17.60;57.70;;;;;;5058939;28;1270;-68
2022/12/17 23:02:50;;;;;;;;;;;17.60;57.70;;;;;;5064828;28;847;-67
2022/12/17 23:05:15;;;;;;;;;;;17.60;57.70;;;;;;5069774;28;1069;-68
2022/12/17 23:07:41;;;;;;;;;;;17.60;57.70;;;;;;5061615;28;1022;-68
2022/12/17 23:10:07;;;;;;;;;;;17.60;57.70;;;;;;5061167;28;1906;-68
2022/12/17 23:12:51;;;;;;;;;;;17.60;57.70;;;;;;5062855;28;832;-68
2022/12/17 23:15:17;;;;;;;;;;;17.60;57.70;;;;;;5062283;28;828;-68
2022/12/17 23:17:43;;;;;;;;;;;17.60;57.70;;;;;;5058114;28;816;-67
2022/12/17 23:20:08;;;;;;;;;;;17.60;57.70;;;;;;5063494;28;1283;-67
2022/12/17 23:22:34;;;;;;;;;;;17.60;57.70;;;;;;5064500;28;1053;-68
2022/12/17 23:24:59;;;;;;;;;;;17.60;57.70;;;;;;5063017;28;895;-68
2022/12/17 23:27:25;;;;;;;;;;;17.60;57.70;;;;;;5062633;28;939;-68
2022/12/17 23:29:50;;;;;;;;;;;17.60;58.30;;;;;;5063510;28;1961;-68
2022/12/17 23:32:15;;;;;;;;;;;17.60;57.70;;;;;;5065245;28;1389;-68
2022/12/17 23:34:41;;;;;;;;;;;17.60;57.70;;;;;;5061091;28;1110;-68
2022/12/17 23:37:06;;;;;;;;;;;17.60;57.80;;;;;;5063052;28;872;-68
2022/12/17 23:39:32;;;;;;;;;;;17.50;57.70;;;;;;5064749;28;883;-68
2022/12/17 23:41:57;;;;;;;;;;;17.50;57.70;;;;;;5061613;28;1525;-67
2022/12/17 23:44:23;;;;;;;;;;;17.50;57.70;;;;;;5061899;28;812;-67
2022/12/17 23:46:48;;;;;;;;;;;17.50;57.70;;;;;;5066010;28;867;-67
2022/12/17 23:49:14;;;;;;;;;;;17.50;57.80;;;;;;5061276;28;1960;-67
2022/12/17 23:51:39;;;;;;;;;;;17.60;57.80;;;;;;5064304;28;1280;-67
2022/12/17 23:54:05;;;;;;;;;;;17.50;57.70;;;;;;5069794;28;931;-66
2022/12/17 23:56:30;;;;;;;;;;;17.50;57.80;;;;;;5061321;28;965;-67
2022/12/17 23:58:57;;;;;;;;;;;17.50;57.80;;;;;;5061600;28;1373;-67
